sensor_id;sensor_type;location;lat;lon;timestamp;pressure;altitude;pressure_sealevel;temperature;humidity
77526;BME280;66627;29.424;-98.496;2024-01-30T00:00:28;99775.06;;;19.26;23.85
77526;BME280;66627;29.424;-98.496;2024-01-30T00:02:54;99781.72;;;18.04;25.15
77526;BME280;66627;29.424;-98.496;2024-01-30T00:05:20;99785.85;;;18.25;25.64
77526;BME280;66627;29.424;-98.496;2024-01-30T00:07:45;99792.90;;;18.48;25.25
77526;BME280;66627;29.424;-98.496;2024-01-30T00:10:10;99793.87;;;17.66;25.62
77526;BME280;66627;29.424;-98.496;2024-01-30T00:12:35;99795.79;;;18.84;25.41
77526;BME280;66627;29.424;-98.496;2024-01-30T00:15:00;99797.42;;;18.59;25.12
77526;BME280;66627;29.424;-98.496;2024-01-30T00:17:25;99798.13;;;17.59;25.98
77526;BME280;66627;29.424;-98.496;2024-01-30T00:19:50;99798.18;;;16.86;27.12
77526;BME280;66627;29.424;-98.496;2024-01-30T00:22:16;99795.56;;;16.95;26.96
77526;BME280;66627;29.424;-98.496;2024-01-30T00:24:41;99793.37;;;17.35;26.59
77526;BME280;66627;29.424;-98.496;2024-01-30T00:27:06;99792.89;;;17.17;26.96
77526;BME280;66627;29.424;-98.496;2024-01-30T00:29:31;99785.41;;;15.72;28.10
77526;BME280;66627;29.424;-98.496;2024-01-30T00:31:57;99791.06;;;16.74;27.73
77526;BME280;66627;29.424;-98.496;2024-01-30T00:34:22;99792.25;;;15.72;28.21
77526;BME280;66627;29.424;-98.496;2024-01-30T00:36:47;99796.99;;;15.85;28.45
77526;BME280;66627;29.424;-98.496;2024-01-30T00:39:13;99799.05;;;15.84;28.79
77526;BME280;66627;29.424;-98.496;2024-01-30T00:41:38;99798.42;;;15.72;30.80
77526;BME280;66627;29.424;-98.496;2024-01-30T00:44:03;99792.20;;;16.19;28.70
77526;BME280;66627;29.424;-98.496;2024-01-30T00:46:27;99792.85;;;16.39;28.39
77526;BME280;66627;29.424;-98.496;2024-01-30T00:48:54;99796.25;;;16.79;27.83
77526;BME280;66627;29.424;-98.496;2024-01-30T00:51:18;99794.14;;;16.45;27.45
77526;BME280;66627;29.424;-98.496;2024-01-30T00:53:45;99793.93;;;15.33;29.25
77526;BME280;66627;29.424;-98.496;2024-01-30T00:56:09;99793.36;;;16.69;28.54
77526;BME280;66627;29.424;-98.496;2024-01-30T00:58:34;99799.27;;;16.55;28.36
77526;BME280;66627;29.424;-98.496;2024-01-30T01:01:01;99801.94;;;17.57;27.69
77526;BME280;66627;29.424;-98.496;2024-01-30T01:03:25;99803.03;;;17.53;30.12
77526;BME280;66627;29.424;-98.496;2024-01-30T01:05:49;99803.45;;;16.92;28.69
77526;BME280;66627;29.424;-98.496;2024-01-30T01:08:15;99808.54;;;16.92;29.45
77526;BME280;66627;29.424;-98.496;2024-01-30T01:10:40;99811.44;;;15.69;29.77
77526;BME280;66627;29.424;-98.496;2024-01-30T01:13:05;99807.65;;;16.56;29.24
77526;BME280;66627;29.424;-98.496;2024-01-30T01:15:30;99810.15;;;17.23;29.34
77526;BME280;66627;29.424;-98.496;2024-01-30T01:17:55;99814.76;;;17.05;30.54
77526;BME280;66627;29.424;-98.496;2024-01-30T01:20:21;99820.67;;;17.38;30.89
77526;BME280;66627;29.424;-98.496;2024-01-30T01:22:47;99823.22;;;14.91;32.33
77526;BME280;66627;29.424;-98.496;2024-01-30T01:25:12;99817.52;;;16.42;31.64
77526;BME280;66627;29.424;-98.496;2024-01-30T01:27:38;99819.68;;;16.26;30.92
77526;BME280;66627;29.424;-98.496;2024-01-30T01:30:05;99816.18;;;16.85;30.40
77526;BME280;66627;29.424;-98.496;2024-01-30T01:32:30;99812.16;;;16.14;30.27
77526;BME280;66627;29.424;-98.496;2024-01-30T01:34:53;99815.73;;;14.51;33.07
77526;BME280;66627;29.424;-98.496;2024-01-30T01:37:19;99810.78;;;16.42;31.62
77526;BME280;66627;29.424;-98.496;2024-01-30T01:39:45;99813.85;;;15.42;32.09
77526;BME280;66627;29.424;-98.496;2024-01-30T01:42:11;99821.77;;;14.64;33.66
77526;BME280;66627;29.424;-98.496;2024-01-30T01:44:35;99827.34;;;15.12;33.30
77526;BME280;66627;29.424;-98.496;2024-01-30T01:47:02;99828.35;;;13.99;34.69
77526;BME280;66627;29.424;-98.496;2024-01-30T01:49:28;99821.28;;;14.45;34.12
77526;BME280;66627;29.424;-98.496;2024-01-30T01:51:55;99825.03;;;13.99;36.09
77526;BME280;66627;29.424;-98.496;2024-01-30T01:54:19;99823.10;;;13.30;36.93
77526;BME280;66627;29.424;-98.496;2024-01-30T01:56:44;99828.57;;;13.63;36.50
77526;BME280;66627;29.424;-98.496;2024-01-30T01:59:10;99831.67;;;12.56;38.42
77526;BME280;66627;29.424;-98.496;2024-01-30T02:01:37;99835.93;;;14.34;36.58
77526;BME280;66627;29.424;-98.496;2024-01-30T02:04:00;99834.61;;;14.25;36.23
77526;BME280;66627;29.424;-98.496;2024-01-30T02:06:26;99834.53;;;12.79;39.21
77526;BME280;66627;29.424;-98.496;2024-01-30T02:08:52;99837.79;;;14.13;37.06
77526;BME280;66627;29.424;-98.496;2024-01-30T02:11:17;99838.15;;;14.19;36.22
77526;BME280;66627;29.424;-98.496;2024-01-30T02:13:42;99829.45;;;15.35;34.47
77526;BME280;66627;29.424;-98.496;2024-01-30T02:16:09;99831.60;;;14.81;34.88
77526;BME280;66627;29.424;-98.496;2024-01-30T02:18:34;99833.58;;;14.46;35.96
77526;BME280;66627;29.424;-98.496;2024-01-30T02:21:04;99833.56;;;14.45;35.93
77526;BME280;66627;29.424;-98.496;2024-01-30T02:23:25;99839.42;;;13.22;36.52
77526;BME280;66627;29.424;-98.496;2024-01-30T02:25:50;99846.33;;;13.04;38.67
77526;BME280;66627;29.424;-98.496;2024-01-30T02:28:15;99851.60;;;13.59;37.31
77526;BME280;66627;29.424;-98.496;2024-01-30T02:30:42;99849.47;;;13.87;37.67
77526;BME280;66627;29.424;-98.496;2024-01-30T02:33:06;99851.92;;;12.78;39.94
77526;BME280;66627;29.424;-98.496;2024-01-30T02:35:31;99853.16;;;12.03;41.75
77526;BME280;66627;29.424;-98.496;2024-01-30T02:38:01;99854.68;;;11.96;41.09
77526;BME280;66627;29.424;-98.496;2024-01-30T02:40:22;99854.11;;;12.19;41.75
77526;BME280;66627;29.424;-98.496;2024-01-30T02:42:47;99860.34;;;13.14;39.63
77526;BME280;66627;29.424;-98.496;2024-01-30T02:45:13;99864.24;;;14.34;38.78
77526;BME280;66627;29.424;-98.496;2024-01-30T02:47:40;99869.60;;;14.58;37.73
77526;BME280;66627;29.424;-98.496;2024-01-30T02:50:04;99872.44;;;14.41;37.89
77526;BME280;66627;29.424;-98.496;2024-01-30T02:52:29;99872.75;;;14.30;38.42
77526;BME280;66627;29.424;-98.496;2024-01-30T02:54:55;99872.16;;;13.58;38.73
77526;BME280;66627;29.424;-98.496;2024-01-30T02:57:21;99872.69;;;13.92;37.79
77526;BME280;66627;29.424;-98.496;2024-01-30T02:59:47;99874.54;;;13.97;37.96
77526;BME280;66627;29.424;-98.496;2024-01-30T03:02:12;99878.81;;;12.09;41.76
77526;BME280;66627;29.424;-98.496;2024-01-30T03:04:37;99881.82;;;13.72;39.98
77526;BME280;66627;29.424;-98.496;2024-01-30T03:07:03;99885.74;;;12.70;40.86
77526;BME280;66627;29.424;-98.496;2024-01-30T03:09:29;99888.09;;;13.34;41.24
77526;BME280;66627;29.424;-98.496;2024-01-30T03:11:54;99883.17;;;13.79;38.75
77526;BME280;66627;29.424;-98.496;2024-01-30T03:14:21;99882.92;;;13.57;38.85
77526;BME280;66627;29.424;-98.496;2024-01-30T03:16:45;99885.09;;;12.88;41.24
77526;BME280;66627;29.424;-98.496;2024-01-30T03:19:11;99885.64;;;13.31;39.04
77526;BME280;66627;29.424;-98.496;2024-01-30T03:21:37;99885.84;;;12.28;41.61
77526;BME280;66627;29.424;-98.496;2024-01-30T03:24:03;99880.20;;;13.30;38.74
77526;BME280;66627;29.424;-98.496;2024-01-30T03:26:28;99883.95;;;13.21;39.39
77526;BME280;66627;29.424;-98.496;2024-01-30T03:28:54;99888.79;;;12.66;41.06
77526;BME280;66627;29.424;-98.496;2024-01-30T03:31:18;99891.68;;;12.62;40.83
77526;BME280;66627;29.424;-98.496;2024-01-30T03:33:44;99892.44;;;13.97;37.77
77526;BME280;66627;29.424;-98.496;2024-01-30T03:36:10;99893.67;;;11.56;42.33
77526;BME280;66627;29.424;-98.496;2024-01-30T03:38:34;99899.39;;;12.06;41.56
77526;BME280;66627;29.424;-98.496;2024-01-30T03:41:01;99899.42;;;11.35;43.74
77526;BME280;66627;29.424;-98.496;2024-01-30T03:43:26;99899.65;;;11.55;43.31
77526;BME280;66627;29.424;-98.496;2024-01-30T03:45:51;99904.54;;;12.03;41.96
77526;BME280;66627;29.424;-98.496;2024-01-30T03:48:17;99907.07;;;11.35;44.57
77526;BME280;66627;29.424;-98.496;2024-01-30T03:50:42;99906.70;;;11.38;44.07
77526;BME280;66627;29.424;-98.496;2024-01-30T03:53:07;99908.06;;;10.72;44.73
77526;BME280;66627;29.424;-98.496;2024-01-30T03:55:33;99907.66;;;12.44;41.89
77526;BME280;66627;29.424;-98.496;2024-01-30T03:58:01;99907.36;;;12.75;41.49
77526;BME280;66627;29.424;-98.496;2024-01-30T04:00:24;99907.91;;;13.11;40.40
77526;BME280;66627;29.424;-98.496;2024-01-30T04:02:49;99909.65;;;12.23;40.96
77526;BME280;66627;29.424;-98.496;2024-01-30T04:05:15;99911.23;;;11.80;41.87
77526;BME280;66627;29.424;-98.496;2024-01-30T04:07:41;99911.61;;;13.08;40.06
77526;BME280;66627;29.424;-98.496;2024-01-30T04:10:07;99914.60;;;13.11;40.14
77526;BME280;66627;29.424;-98.496;2024-01-30T04:12:30;99915.02;;;12.02;40.97
77526;BME280;66627;29.424;-98.496;2024-01-30T04:14:57;99913.54;;;11.82;42.04
77526;BME280;66627;29.424;-98.496;2024-01-30T04:17:22;99913.99;;;11.51;42.47
77526;BME280;66627;29.424;-98.496;2024-01-30T04:19:48;99915.19;;;11.80;41.94
77526;BME280;66627;29.424;-98.496;2024-01-30T04:22:14;99914.60;;;12.15;41.42
77526;BME280;66627;29.424;-98.496;2024-01-30T04:24:38;99915.47;;;11.60;41.37
77526;BME280;66627;29.424;-98.496;2024-01-30T04:27:04;99922.02;;;11.11;41.47
77526;BME280;66627;29.424;-98.496;2024-01-30T04:29:29;99924.41;;;11.91;41.34
77526;BME280;66627;29.424;-98.496;2024-01-30T04:31:56;99925.52;;;11.12;41.91
77526;BME280;66627;29.424;-98.496;2024-01-30T04:34:20;99918.24;;;12.06;41.01
77526;BME280;66627;29.424;-98.496;2024-01-30T04:36:46;99917.09;;;12.91;39.49
77526;BME280;66627;29.424;-98.496;2024-01-30T04:39:12;99915.64;;;13.40;38.03
77526;BME280;66627;29.424;-98.496;2024-01-30T04:41:37;99912.42;;;13.20;38.67
77526;BME280;66627;29.424;-98.496;2024-01-30T04:44:02;99909.07;;;13.96;37.16
77526;BME280;66627;29.424;-98.496;2024-01-30T04:46:28;99913.67;;;13.78;37.45
77526;BME280;66627;29.424;-98.496;2024-01-30T04:48:54;99911.48;;;11.70;41.25
77526;BME280;66627;29.424;-98.496;2024-01-30T04:51:19;99907.78;;;13.27;37.06
77526;BME280;66627;29.424;-98.496;2024-01-30T04:53:45;99903.31;;;12.33;38.13
77526;BME280;66627;29.424;-98.496;2024-01-30T04:56:11;99905.85;;;13.70;36.91
77526;BME280;66627;29.424;-98.496;2024-01-30T04:58:38;99903.72;;;12.16;38.80
77526;BME280;66627;29.424;-98.496;2024-01-30T05:01:02;99902.68;;;13.42;36.84
77526;BME280;66627;29.424;-98.496;2024-01-30T05:03:26;99899.53;;;13.56;36.00
77526;BME280;66627;29.424;-98.496;2024-01-30T05:05:51;99894.09;;;13.25;36.26
77526;BME280;66627;29.424;-98.496;2024-01-30T05:08:17;99895.85;;;13.40;37.81
77526;BME280;66627;29.424;-98.496;2024-01-30T05:10:44;99891.20;;;12.39;38.89
77526;BME280;66627;29.424;-98.496;2024-01-30T05:13:07;99892.19;;;12.61;39.35
77526;BME280;66627;29.424;-98.496;2024-01-30T05:15:32;99893.30;;;12.84;37.82
77526;BME280;66627;29.424;-98.496;2024-01-30T05:17:58;99893.86;;;13.22;38.49
77526;BME280;66627;29.424;-98.496;2024-01-30T05:20:23;99889.84;;;13.53;36.34
77526;BME280;66627;29.424;-98.496;2024-01-30T05:22:48;99892.64;;;13.37;36.82
77526;BME280;66627;29.424;-98.496;2024-01-30T05:25:15;99892.39;;;13.83;36.03
77526;BME280;66627;29.424;-98.496;2024-01-30T05:27:40;99897.96;;;13.62;36.37
77526;BME280;66627;29.424;-98.496;2024-01-30T05:30:07;99899.17;;;12.92;36.77
77526;BME280;66627;29.424;-98.496;2024-01-30T05:32:30;99897.31;;;13.00;37.43
77526;BME280;66627;29.424;-98.496;2024-01-30T05:34:56;99895.25;;;13.03;37.31
77526;BME280;66627;29.424;-98.496;2024-01-30T05:37:21;99891.38;;;12.37;38.22
77526;BME280;66627;29.424;-98.496;2024-01-30T05:39:47;99893.79;;;11.49;38.98
77526;BME280;66627;29.424;-98.496;2024-01-30T05:42:12;99897.19;;;11.47;40.72
77526;BME280;66627;29.424;-98.496;2024-01-30T05:44:39;99896.79;;;13.89;37.64
77526;BME280;66627;29.424;-98.496;2024-01-30T05:47:03;99894.38;;;13.65;37.31
77526;BME280;66627;29.424;-98.496;2024-01-30T05:49:29;99889.58;;;14.00;37.10
77526;BME280;66627;29.424;-98.496;2024-01-30T05:51:53;99893.68;;;13.72;37.61
77526;BME280;66627;29.424;-98.496;2024-01-30T05:54:20;99887.42;;;13.62;36.76
77526;BME280;66627;29.424;-98.496;2024-01-30T05:56:46;99889.49;;;13.46;38.18
77526;BME280;66627;29.424;-98.496;2024-01-30T05:59:11;99889.44;;;13.40;38.26
77526;BME280;66627;29.424;-98.496;2024-01-30T06:01:36;99889.16;;;13.33;36.76
77526;BME280;66627;29.424;-98.496;2024-01-30T06:04:03;99884.82;;;13.21;37.80
77526;BME280;66627;29.424;-98.496;2024-01-30T06:06:27;99880.36;;;13.76;37.25
77526;BME280;66627;29.424;-98.496;2024-01-30T06:08:53;99876.16;;;13.71;38.14
77526;BME280;66627;29.424;-98.496;2024-01-30T06:11:19;99884.73;;;14.08;37.94
77526;BME280;66627;29.424;-98.496;2024-01-30T06:13:45;99887.12;;;12.96;37.98
77526;BME280;66627;29.424;-98.496;2024-01-30T06:16:12;99883.71;;;13.51;36.39
77526;BME280;66627;29.424;-98.496;2024-01-30T06:18:36;99884.76;;;12.97;37.29
77526;BME280;66627;29.424;-98.496;2024-01-30T06:21:01;99885.02;;;13.54;38.66
77526;BME280;66627;29.424;-98.496;2024-01-30T06:23:26;99879.57;;;13.72;38.99
77526;BME280;66627;29.424;-98.496;2024-01-30T06:25:52;99877.92;;;13.09;36.71
77526;BME280;66627;29.424;-98.496;2024-01-30T06:28:19;99879.89;;;10.53;42.64
77526;BME280;66627;29.424;-98.496;2024-01-30T06:30:44;99884.19;;;11.20;41.04
77526;BME280;66627;29.424;-98.496;2024-01-30T06:33:08;99883.04;;;13.14;39.11
77526;BME280;66627;29.424;-98.496;2024-01-30T06:35:34;99877.94;;;12.85;38.72
77526;BME280;66627;29.424;-98.496;2024-01-30T06:37:59;99876.67;;;12.97;37.94
77526;BME280;66627;29.424;-98.496;2024-01-30T06:40:24;99878.84;;;12.97;37.82
77526;BME280;66627;29.424;-98.496;2024-01-30T06:42:51;99874.11;;;12.86;37.32
77526;BME280;66627;29.424;-98.496;2024-01-30T06:45:17;99874.20;;;12.79;39.80
77526;BME280;66627;29.424;-98.496;2024-01-30T06:47:42;99873.54;;;13.14;38.79
77526;BME280;66627;29.424;-98.496;2024-01-30T06:50:08;99869.97;;;10.51;42.89
77526;BME280;66627;29.424;-98.496;2024-01-30T06:52:33;99866.57;;;10.11;44.68
77526;BME280;66627;29.424;-98.496;2024-01-30T06:54:58;99863.83;;;11.22;43.65
77526;BME280;66627;29.424;-98.496;2024-01-30T06:57:24;99860.15;;;12.12;42.15
77526;BME280;66627;29.424;-98.496;2024-01-30T06:59:49;99864.42;;;12.25;41.37
77526;BME280;66627;29.424;-98.496;2024-01-30T07:02:14;99865.07;;;11.12;43.05
77526;BME280;66627;29.424;-98.496;2024-01-30T07:04:41;99858.21;;;10.55;44.28
77526;BME280;66627;29.424;-98.496;2024-01-30T07:07:06;99853.34;;;11.08;44.26
77526;BME280;66627;29.424;-98.496;2024-01-30T07:09:31;99850.64;;;12.30;42.21
77526;BME280;66627;29.424;-98.496;2024-01-30T07:11:57;99846.07;;;12.36;41.11
77526;BME280;66627;29.424;-98.496;2024-01-30T07:14:23;99843.32;;;12.49;40.05
77526;BME280;66627;29.424;-98.496;2024-01-30T07:16:47;99847.71;;;11.53;42.70
77526;BME280;66627;29.424;-98.496;2024-01-30T07:19:14;99850.85;;;10.49;44.54
77526;BME280;66627;29.424;-98.496;2024-01-30T07:21:41;99855.69;;;9.41;46.77
77526;BME280;66627;29.424;-98.496;2024-01-30T07:24:06;99854.29;;;10.97;44.64
77526;BME280;66627;29.424;-98.496;2024-01-30T07:26:30;99858.22;;;8.89;49.39
77526;BME280;66627;29.424;-98.496;2024-01-30T07:28:55;99855.97;;;8.77;50.74
77526;BME280;66627;29.424;-98.496;2024-01-30T07:31:21;99847.69;;;8.88;50.72
77526;BME280;66627;29.424;-98.496;2024-01-30T07:33:47;99849.22;;;8.94;51.17
77526;BME280;66627;29.424;-98.496;2024-01-30T07:36:12;99847.42;;;10.56;46.68
77526;BME280;66627;29.424;-98.496;2024-01-30T07:38:37;99846.58;;;11.13;44.68
77526;BME280;66627;29.424;-98.496;2024-01-30T07:41:03;99849.35;;;10.10;46.80
77526;BME280;66627;29.424;-98.496;2024-01-30T07:43:28;99843.98;;;10.91;44.41
77526;BME280;66627;29.424;-98.496;2024-01-30T07:45:55;99843.33;;;11.24;44.13
77526;BME280;66627;29.424;-98.496;2024-01-30T07:48:20;99849.48;;;9.26;49.46
77526;BME280;66627;29.424;-98.496;2024-01-30T07:50:46;99846.43;;;8.79;51.17
77526;BME280;66627;29.424;-98.496;2024-01-30T07:53:10;99845.09;;;8.45;51.42
77526;BME280;66627;29.424;-98.496;2024-01-30T07:55:36;99845.05;;;8.43;52.03
77526;BME280;66627;29.424;-98.496;2024-01-30T07:58:00;99844.80;;;8.37;51.33
77526;BME280;66627;29.424;-98.496;2024-01-30T08:00:26;99843.03;;;8.77;51.23
77526;BME280;66627;29.424;-98.496;2024-01-30T08:02:52;99829.91;;;10.48;46.79
77526;BME280;66627;29.424;-98.496;2024-01-30T08:05:17;99818.43;;;11.25;45.47
77526;BME280;66627;29.424;-98.496;2024-01-30T08:07:44;99814.49;;;11.28;44.27
77526;BME280;66627;29.424;-98.496;2024-01-30T08:10:10;99812.43;;;11.02;44.95
77526;BME280;66627;29.424;-98.496;2024-01-30T08:12:32;99814.58;;;10.34;45.92
77526;BME280;66627;29.424;-98.496;2024-01-30T08:14:59;99809.03;;;10.52;45.85
77526;BME280;66627;29.424;-98.496;2024-01-30T08:17:24;99813.33;;;9.23;48.65
77526;BME280;66627;29.424;-98.496;2024-01-30T08:19:49;99816.76;;;8.45;50.29
77526;BME280;66627;29.424;-98.496;2024-01-30T08:22:15;99820.56;;;8.73;49.68
77526;BME280;66627;29.424;-98.496;2024-01-30T08:24:41;99818.23;;;9.93;47.05
77526;BME280;66627;29.424;-98.496;2024-01-30T08:27:07;99820.11;;;9.88;47.38
77526;BME280;66627;29.424;-98.496;2024-01-30T08:29:30;99825.69;;;9.69;48.02
77526;BME280;66627;29.424;-98.496;2024-01-30T08:31:57;99827.65;;;8.56;51.11
77526;BME280;66627;29.424;-98.496;2024-01-30T08:34:23;99821.41;;;8.08;52.44
77526;BME280;66627;29.424;-98.496;2024-01-30T08:36:46;99814.21;;;7.87;52.91
77526;BME280;66627;29.424;-98.496;2024-01-30T08:39:14;99815.65;;;7.56;54.10
77526;BME280;66627;29.424;-98.496;2024-01-30T08:41:38;99809.61;;;7.68;53.24
77526;BME280;66627;29.424;-98.496;2024-01-30T08:44:04;99813.64;;;7.62;53.58
77526;BME280;66627;29.424;-98.496;2024-01-30T08:46:28;99816.83;;;7.49;53.65
77526;BME280;66627;29.424;-98.496;2024-01-30T08:48:55;99813.14;;;7.30;53.23
77526;BME280;66627;29.424;-98.496;2024-01-30T08:51:20;99809.64;;;7.60;53.30
77526;BME280;66627;29.424;-98.496;2024-01-30T08:53:44;99811.77;;;7.64;53.56
77526;BME280;66627;29.424;-98.496;2024-01-30T08:56:11;99814.58;;;7.50;54.20
77526;BME280;66627;29.424;-98.496;2024-01-30T08:58:35;99811.76;;;7.85;54.16
77526;BME280;66627;29.424;-98.496;2024-01-30T09:01:01;99799.95;;;9.24;51.84
77526;BME280;66627;29.424;-98.496;2024-01-30T09:03:27;99795.07;;;10.23;48.85
77526;BME280;66627;29.424;-98.496;2024-01-30T09:05:52;99797.21;;;9.36;49.26
77526;BME280;66627;29.424;-98.496;2024-01-30T09:08:18;99795.89;;;8.41;50.89
77526;BME280;66627;29.424;-98.496;2024-01-30T09:10:43;99791.58;;;10.11;48.48
77526;BME280;66627;29.424;-98.496;2024-01-30T09:13:08;99798.14;;;8.50;50.98
77526;BME280;66627;29.424;-98.496;2024-01-30T09:15:35;99801.89;;;7.90;52.92
77526;BME280;66627;29.424;-98.496;2024-01-30T09:18:01;99796.80;;;7.28;53.92
77526;BME280;66627;29.424;-98.496;2024-01-30T09:20:25;99797.30;;;7.34;54.10
77526;BME280;66627;29.424;-98.496;2024-01-30T09:22:50;99798.26;;;7.46;54.48
77526;BME280;66627;29.424;-98.496;2024-01-30T09:25:16;99798.72;;;7.45;54.32
77526;BME280;66627;29.424;-98.496;2024-01-30T09:27:41;99794.48;;;7.30;54.26
77526;BME280;66627;29.424;-98.496;2024-01-30T09:30:07;99795.05;;;7.54;54.41
77526;BME280;66627;29.424;-98.496;2024-01-30T09:32:31;99791.08;;;7.55;54.28
77526;BME280;66627;29.424;-98.496;2024-01-30T09:34:57;99790.71;;;7.52;54.10
77526;BME280;66627;29.424;-98.496;2024-01-30T09:37:22;99789.26;;;7.50;54.33
77526;BME280;66627;29.424;-98.496;2024-01-30T09:39:48;99791.49;;;7.24;54.55
77526;BME280;66627;29.424;-98.496;2024-01-30T09:42:20;99787.90;;;7.48;54.72
77526;BME280;66627;29.424;-98.496;2024-01-30T09:44:39;99788.15;;;7.32;55.00
77526;BME280;66627;29.424;-98.496;2024-01-30T09:47:04;99792.26;;;7.30;54.76
77526;BME280;66627;29.424;-98.496;2024-01-30T09:49:31;99794.13;;;6.92;55.10
77526;BME280;66627;29.424;-98.496;2024-01-30T09:51:54;99795.53;;;6.69;55.90
77526;BME280;66627;29.424;-98.496;2024-01-30T09:54:20;99792.89;;;7.23;55.70
77526;BME280;66627;29.424;-98.496;2024-01-30T09:56:45;99791.07;;;7.00;56.28
77526;BME280;66627;29.424;-98.496;2024-01-30T09:59:11;99790.93;;;7.01;56.50
77526;BME280;66627;29.424;-98.496;2024-01-30T10:01:36;99795.29;;;7.16;55.28
77526;BME280;66627;29.424;-98.496;2024-01-30T10:04:01;99798.04;;;7.21;54.95
77526;BME280;66627;29.424;-98.496;2024-01-30T10:06:29;99797.55;;;6.79;55.09
77526;BME280;66627;29.424;-98.496;2024-01-30T10:08:52;99802.46;;;7.02;54.81
77526;BME280;66627;29.424;-98.496;2024-01-30T10:11:19;99802.20;;;7.16;55.84
77526;BME280;66627;29.424;-98.496;2024-01-30T10:13:43;99802.88;;;7.06;55.26
77526;BME280;66627;29.424;-98.496;2024-01-30T10:16:13;99803.75;;;7.11;55.91
77526;BME280;66627;29.424;-98.496;2024-01-30T10:18:35;99809.85;;;6.86;55.74
77526;BME280;66627;29.424;-98.496;2024-01-30T10:21:00;99807.98;;;6.94;56.06
77526;BME280;66627;29.424;-98.496;2024-01-30T10:23:26;99805.73;;;6.86;56.37
77526;BME280;66627;29.424;-98.496;2024-01-30T10:25:51;99803.80;;;6.87;56.37
77526;BME280;66627;29.424;-98.496;2024-01-30T10:28:17;99803.23;;;6.85;56.31
77526;BME280;66627;29.424;-98.496;2024-01-30T10:33:08;99800.66;;;6.84;56.10
77526;BME280;66627;29.424;-98.496;2024-01-30T10:35:32;99799.62;;;7.00;55.64
77526;BME280;66627;29.424;-98.496;2024-01-30T10:37:58;99798.15;;;7.01;56.44
77526;BME280;66627;29.424;-98.496;2024-01-30T10:40:27;99800.40;;;6.89;55.58
77526;BME280;66627;29.424;-98.496;2024-01-30T10:42:53;99798.79;;;7.01;55.66
77526;BME280;66627;29.424;-98.496;2024-01-30T10:45:15;99797.82;;;7.29;54.91
77526;BME280;66627;29.424;-98.496;2024-01-30T10:47:42;99796.94;;;7.60;54.21
77526;BME280;66627;29.424;-98.496;2024-01-30T10:50:05;99797.39;;;7.43;54.34
77526;BME280;66627;29.424;-98.496;2024-01-30T10:52:29;99798.48;;;7.85;53.70
77526;BME280;66627;29.424;-98.496;2024-01-30T10:54:56;99797.56;;;7.72;53.47
77526;BME280;66627;29.424;-98.496;2024-01-30T10:57:19;99794.14;;;7.76;52.96
77526;BME280;66627;29.424;-98.496;2024-01-30T10:59:46;99793.69;;;7.27;53.82
77526;BME280;66627;29.424;-98.496;2024-01-30T11:02:11;99792.40;;;7.34;54.39
77526;BME280;66627;29.424;-98.496;2024-01-30T11:04:38;99791.77;;;7.29;54.35
77526;BME280;66627;29.424;-98.496;2024-01-30T11:07:00;99786.52;;;7.00;54.94
77526;BME280;66627;29.424;-98.496;2024-01-30T11:09:31;99784.29;;;6.91;55.26
77526;BME280;66627;29.424;-98.496;2024-01-30T11:11:56;99782.20;;;7.03;55.34
77526;BME280;66627;29.424;-98.496;2024-01-30T11:14:23;99778.21;;;7.30;54.84
77526;BME280;66627;29.424;-98.496;2024-01-30T11:16:45;99779.57;;;6.81;55.49
77526;BME280;66627;29.424;-98.496;2024-01-30T11:19:11;99783.63;;;6.87;55.66
77526;BME280;66627;29.424;-98.496;2024-01-30T11:21:41;99784.37;;;6.55;56.70
77526;BME280;66627;29.424;-98.496;2024-01-30T11:24:05;99784.15;;;6.51;56.78
77526;BME280;66627;29.424;-98.496;2024-01-30T11:26:30;99785.96;;;6.53;57.17
77526;BME280;66627;29.424;-98.496;2024-01-30T11:28:53;99784.59;;;6.64;57.11
77526;BME280;66627;29.424;-98.496;2024-01-30T11:31:20;99785.39;;;6.70;56.90
77526;BME280;66627;29.424;-98.496;2024-01-30T11:33:42;99785.99;;;6.23;57.61
77526;BME280;66627;29.424;-98.496;2024-01-30T11:36:08;99787.42;;;6.10;57.47
77526;BME280;66627;29.424;-98.496;2024-01-30T11:38:32;99791.82;;;6.32;57.40
77526;BME280;66627;29.424;-98.496;2024-01-30T11:40:58;99792.78;;;6.56;57.12
77526;BME280;66627;29.424;-98.496;2024-01-30T11:43:23;99789.30;;;6.34;58.38
77526;BME280;66627;29.424;-98.496;2024-01-30T11:45:49;99791.65;;;6.11;57.99
77526;BME280;66627;29.424;-98.496;2024-01-30T11:48:14;99793.46;;;6.06;58.05
77526;BME280;66627;29.424;-98.496;2024-01-30T11:50:40;99793.62;;;6.55;56.83
77526;BME280;66627;29.424;-98.496;2024-01-30T11:53:06;99798.66;;;7.22;55.63
77526;BME280;66627;29.424;-98.496;2024-01-30T11:55:30;99803.06;;;6.83;56.18
77526;BME280;66627;29.424;-98.496;2024-01-30T11:57:57;99803.15;;;8.37;53.58
77526;BME280;66627;29.424;-98.496;2024-01-30T12:00:21;99803.23;;;7.16;54.41
77526;BME280;66627;29.424;-98.496;2024-01-30T12:02:50;99803.19;;;6.52;56.28
77526;BME280;66627;29.424;-98.496;2024-01-30T12:05:11;99801.07;;;7.07;55.62
77526;BME280;66627;29.424;-98.496;2024-01-30T12:07:35;99807.72;;;7.65;54.78
77526;BME280;66627;29.424;-98.496;2024-01-30T12:10:01;99813.84;;;6.47;56.27
77526;BME280;66627;29.424;-98.496;2024-01-30T12:12:28;99818.54;;;6.34;57.02
77526;BME280;66627;29.424;-98.496;2024-01-30T12:14:53;99820.16;;;6.95;56.61
77526;BME280;66627;29.424;-98.496;2024-01-30T12:17:24;99817.50;;;6.92;55.24
77526;BME280;66627;29.424;-98.496;2024-01-30T12:19:44;99816.39;;;7.42;53.92
77526;BME280;66627;29.424;-98.496;2024-01-30T12:22:08;99817.87;;;7.73;52.78
77526;BME280;66627;29.424;-98.496;2024-01-30T12:24:34;99819.52;;;6.38;55.73
77526;BME280;66627;29.424;-98.496;2024-01-30T12:26:59;99821.96;;;6.22;56.79
77526;BME280;66627;29.424;-98.496;2024-01-30T12:29:25;99828.70;;;6.56;56.38
77526;BME280;66627;29.424;-98.496;2024-01-30T12:31:53;99830.82;;;7.39;54.49
77526;BME280;66627;29.424;-98.496;2024-01-30T12:34:15;99826.50;;;7.12;54.86